KLWB/LWB METAR and TAF weather

Enter ICAO airport designator
Station Type Date Time Source
KLWB METAR 2021/05/14 23:15 UTC NOAA

KLWB 142315Z AUTO 00000KT 10SM BKN120 16/M03 A3025 RMK AO2 T01581030


Station Type Date Time Source
KLWB Decoded METAR 2021/05/14 23:15 UTC NOAA

Lewisburg / Greenbrier, WV, United States (KLWB) 37-52N 080-24W
May 14, 2021 - 07:15 PM EDT / 2021.05.14 2315 UTC
Wind: Calm:0
Visibility: 10 mile(s):0
Sky conditions: mostly cloudy
Temperature: 60.4 F (15.8 C)
Dew Point: 26.6 F (-3.0 C)
Relative Humidity: 27%
Pressure (altimeter): 30.25 in. Hg (1024 hPa)
ob: KLWB 142315Z AUTO 00000KT 10SM BKN120 16/M03 A3025 RMK AO2 T01581030
cycle: 23

Station Type Date Time Source
KLWB TAF 2021/05/14 18:21 UTC NOAA

TAF KLWB 141720Z 1418/1518 VRB05KT P6SM OVC080
FM150100 00000KT P6SM BKN080
FM151500 VRB03KT P6SM SCT070

Example: see airport list